createdAt,value
2018-09-19T00:01:47.616Z,9.73
2018-09-19T00:04:15.801Z,9.97
2018-09-19T00:06:43.995Z,14.23
2018-09-19T00:09:12.711Z,16.90
2018-09-19T00:11:41.291Z,15.43
2018-09-19T00:14:10.492Z,11.93
2018-09-19T00:16:38.717Z,13.00
2018-09-19T00:19:06.691Z,14.90
2018-09-19T00:21:34.899Z,8.90
2018-09-19T00:24:03.091Z,10.70
2018-09-19T00:26:31.293Z,11.07
2018-09-19T00:28:59.446Z,11.83
2018-09-19T00:31:27.667Z,8.83
2018-09-19T00:33:55.915Z,10.27
2018-09-19T00:36:24.506Z,12.03
2018-09-19T00:38:52.916Z,11.40
2018-09-19T00:41:21.185Z,12.77
2018-09-19T00:43:49.376Z,10.13
2018-09-19T00:46:17.565Z,11.87
2018-09-19T00:48:45.774Z,12.77
2018-09-19T00:51:13.996Z,12.43
2018-09-19T00:53:42.180Z,14.73
2018-09-19T00:56:10.399Z,9.93
2018-09-19T00:58:38.664Z,11.70
2018-09-19T01:01:06.937Z,11.83
2018-09-19T01:03:35.133Z,11.27
2018-09-19T01:06:03.346Z,15.27
2018-09-19T01:08:31.534Z,15.00
2018-09-19T01:10:59.808Z,20.50
2018-09-19T01:13:28.007Z,14.23
2018-09-19T01:15:56.198Z,14.10
2018-09-19T01:18:24.370Z,12.20
2018-09-19T01:20:52.559Z,13.33
2018-09-19T01:23:20.778Z,16.03
2018-09-19T01:25:48.999Z,12.10
2018-09-19T01:28:17.172Z,11.70
2018-09-19T01:30:45.367Z,14.70
2018-09-19T01:33:13.575Z,13.87
2018-09-19T01:35:41.777Z,11.97
2018-09-19T01:38:09.977Z,14.80
2018-09-19T01:40:38.161Z,11.87
2018-09-19T01:43:06.360Z,10.07
2018-09-19T01:45:34.546Z,10.47
2018-09-19T01:48:02.725Z,12.97
2018-09-19T01:50:30.948Z,14.47
2018-09-19T01:52:59.127Z,8.43
2018-09-19T01:55:27.329Z,14.77
2018-09-19T01:57:55.526Z,9.27
2018-09-19T02:00:23.719Z,15.43
2018-09-19T02:02:51.972Z,13.77
2018-09-19T02:05:20.217Z,12.57
2018-09-19T02:07:48.400Z,15.83
2018-09-19T02:10:16.579Z,12.57
2018-09-19T02:12:44.822Z,13.73
2018-09-19T02:15:13.004Z,15.87
2018-09-19T02:17:41.235Z,14.67
2018-09-19T02:20:09.435Z,11.20
2018-09-19T02:22:37.627Z,10.40
2018-09-19T02:25:05.812Z,11.47
2018-09-19T02:27:34.028Z,15.27
2018-09-19T02:30:02.236Z,8.00
2018-09-19T02:32:30.504Z,11.50
2018-09-19T02:34:58.647Z,12.77
2018-09-19T02:37:26.917Z,12.73
2018-09-19T02:39:55.119Z,12.57
2018-09-19T02:42:23.351Z,11.17
2018-09-19T02:44:51.554Z,14.77
2018-09-19T02:47:19.737Z,14.23
2018-09-19T02:49:48.009Z,12.30
2018-09-19T02:52:16.176Z,13.13
2018-09-19T02:54:44.391Z,17.60
2018-09-19T02:57:12.645Z,11.33
2018-09-19T02:59:40.838Z,11.03
2018-09-19T03:02:09.893Z,14.63
2018-09-19T03:04:38.090Z,13.83
2018-09-19T03:07:06.278Z,14.83
2018-09-19T03:09:34.482Z,16.03
2018-09-19T03:12:02.708Z,12.90
2018-09-19T03:14:30.898Z,10.60
2018-09-19T03:16:59.168Z,13.07
2018-09-19T03:19:27.309Z,12.80
2018-09-19T03:21:55.541Z,12.13
2018-09-19T03:24:23.726Z,12.40
2018-09-19T03:26:51.984Z,13.83
2018-09-19T03:29:20.187Z,10.90
2018-09-19T03:31:48.444Z,11.40
2018-09-19T03:34:16.623Z,11.27
2018-09-19T03:36:44.887Z,13.63
2018-09-19T03:39:13.082Z,11.10
2018-09-19T03:41:41.384Z,11.93
2018-09-19T03:44:09.627Z,17.07
2018-09-19T03:46:38.673Z,14.73
2018-09-19T03:49:07.272Z,10.47
2018-09-19T03:51:35.632Z,11.70
2018-09-19T03:54:03.827Z,13.30
2018-09-19T03:56:32.019Z,10.00
2018-09-19T03:59:00.253Z,13.40
2018-09-19T04:01:28.462Z,12.77
2018-09-19T04:03:57.602Z,10.13
2018-09-19T04:06:25.778Z,16.67
2018-09-19T04:08:54.099Z,10.73
2018-09-19T04:11:22.289Z,20.37
2018-09-19T04:13:50.519Z,15.93
2018-09-19T04:16:18.708Z,14.37
2018-09-19T04:18:46.893Z,12.97
2018-09-19T04:21:15.100Z,15.27
2018-09-19T04:23:43.561Z,17.70
2018-09-19T04:26:11.820Z,16.03
2018-09-19T04:28:40.097Z,12.40
2018-09-19T04:31:08.712Z,12.93
2018-09-19T04:33:36.937Z,14.97
2018-09-19T04:36:05.143Z,14.10
2018-09-19T04:38:33.341Z,15.07
2018-09-19T04:41:01.530Z,10.70
2018-09-19T04:43:29.726Z,11.60
2018-09-19T04:45:57.912Z,16.50
2018-09-19T04:48:26.139Z,10.83
2018-09-19T04:50:54.324Z,11.40
2018-09-19T04:53:22.544Z,11.97
2018-09-19T04:55:50.789Z,12.33
2018-09-19T04:58:18.979Z,13.50
2018-09-19T05:00:47.468Z,13.80
2018-09-19T05:03:15.744Z,17.57
2018-09-19T05:05:43.995Z,12.57
2018-09-19T05:08:12.177Z,17.90
2018-09-19T05:10:40.469Z,11.80
2018-09-19T05:13:08.662Z,13.80
2018-09-19T05:15:36.916Z,13.80
2018-09-19T05:18:05.710Z,14.70
2018-09-19T05:20:34.066Z,9.43
2018-09-19T05:23:02.270Z,13.80
2018-09-19T05:25:30.484Z,11.07
2018-09-19T05:27:58.718Z,12.90
2018-09-19T05:30:26.958Z,13.60
2018-09-19T05:32:55.169Z,10.87
2018-09-19T05:35:23.442Z,16.83
2018-09-19T05:37:51.657Z,12.40
2018-09-19T05:40:19.869Z,10.10
2018-09-19T05:42:48.135Z,11.67
2018-09-19T05:45:16.395Z,13.30
2018-09-19T05:47:44.610Z,10.40
2018-09-19T05:50:12.928Z,10.40
2018-09-19T05:52:41.150Z,17.03
2018-09-19T05:55:09.386Z,11.80
2018-09-19T05:57:37.640Z,13.50
2018-09-19T06:00:05.855Z,16.70
2018-09-19T06:02:34.127Z,14.53
2018-09-19T06:05:02.396Z,10.20
2018-09-19T06:07:30.536Z,11.37
2018-09-19T06:09:58.759Z,12.23
2018-09-19T06:12:27.038Z,15.40
2018-09-19T06:14:55.321Z,12.93
2018-09-19T06:17:23.746Z,15.33
2018-09-19T06:19:53.065Z,13.33
2018-09-19T06:22:21.274Z,12.20
2018-09-19T06:24:49.528Z,11.10
2018-09-19T06:27:18.126Z,8.63
2018-09-19T06:29:46.433Z,16.63
2018-09-19T06:32:14.645Z,13.17
2018-09-19T06:34:42.915Z,10.87
2018-09-19T06:37:11.429Z,14.73
2018-09-19T06:39:39.605Z,16.50
2018-09-19T06:42:08.811Z,14.70
2018-09-19T06:44:37.135Z,14.37
2018-09-19T06:47:05.510Z,12.73
2018-09-19T06:49:33.737Z,13.43
2018-09-19T06:52:02.085Z,11.53
2018-09-19T06:54:31.622Z,19.10
2018-09-19T06:56:59.848Z,12.87
2018-09-19T06:59:28.000Z,14.07
2018-09-19T07:01:56.144Z,12.43
2018-09-19T07:04:24.379Z,13.50
2018-09-19T07:06:52.721Z,11.77
2018-09-19T07:09:20.878Z,10.30
2018-09-19T07:11:49.032Z,15.23
2018-09-19T07:14:17.540Z,18.23
2018-09-19T07:16:45.792Z,12.43
2018-09-19T07:19:14.167Z,8.97
2018-09-19T07:21:42.378Z,11.03
2018-09-19T07:24:10.720Z,12.87
2018-09-19T07:26:38.955Z,13.83
2018-09-19T07:29:07.172Z,12.13
2018-09-19T07:31:35.388Z,9.50
2018-09-19T07:34:03.665Z,14.23
2018-09-19T07:36:31.880Z,9.70
2018-09-19T07:39:00.352Z,11.07
2018-09-19T07:41:28.348Z,13.17
2018-09-19T07:43:56.596Z,11.87
2018-09-19T07:46:24.872Z,10.37
2018-09-19T07:48:53.769Z,11.80
2018-09-19T07:51:22.049Z,11.90
2018-09-19T07:53:50.047Z,13.03
2018-09-19T07:56:18.253Z,10.68
2018-09-19T07:58:46.499Z,10.95
2018-09-19T08:01:14.833Z,9.10
2018-09-19T08:03:42.968Z,19.23
2018-09-19T08:06:11.218Z,11.75
2018-09-19T08:08:39.421Z,9.85
2018-09-19T08:11:08.030Z,7.97
2018-09-19T08:13:36.406Z,8.38
2018-09-19T08:16:04.629Z,9.88
2018-09-19T08:18:32.868Z,8.35
2018-09-19T08:21:01.058Z,9.70
2018-09-19T08:23:29.275Z,12.20
2018-09-19T08:25:57.740Z,12.23
2018-09-19T08:28:25.988Z,14.05
2018-09-19T08:30:54.870Z,8.63
2018-09-19T08:33:23.120Z,12.18
2018-09-19T08:35:51.335Z,8.35
2018-09-19T08:38:19.540Z,8.55
2018-09-19T08:40:47.791Z,9.18
2018-09-19T08:43:15.985Z,10.30
2018-09-19T08:45:44.512Z,9.00
2018-09-19T08:48:12.794Z,8.93
2018-09-19T08:50:41.034Z,12.18
2018-09-19T08:53:09.190Z,6.25
2018-09-19T08:55:37.463Z,7.97
2018-09-19T08:58:05.767Z,11.93
2018-09-19T09:00:34.305Z,10.00
2018-09-19T09:03:02.550Z,7.78
2018-09-19T09:05:30.733Z,8.30
2018-09-19T09:07:58.981Z,11.88
2018-09-19T09:10:27.256Z,10.28
2018-09-19T09:12:56.122Z,9.08
2018-09-19T09:15:24.121Z,9.68
2018-09-19T09:17:52.377Z,8.00
2018-09-19T09:20:20.670Z,6.90
2018-09-19T09:22:48.939Z,10.38
2018-09-19T09:25:17.136Z,9.88
2018-09-19T09:27:45.690Z,7.33
2018-09-19T09:30:14.121Z,9.25
2018-09-19T09:32:42.354Z,5.95
2018-09-19T09:35:10.600Z,8.63
2018-09-19T09:37:38.846Z,8.75
2018-09-19T09:40:07.066Z,8.88
2018-09-19T09:42:35.270Z,8.03
2018-09-19T09:45:03.498Z,9.38
2018-09-19T09:47:31.976Z,6.45
2018-09-19T09:50:00.216Z,9.45
2018-09-19T09:52:28.471Z,8.68
2018-09-19T09:54:56.727Z,5.97
2018-09-19T09:57:24.963Z,7.70
2018-09-19T09:59:53.155Z,7.42
2018-09-19T10:02:21.330Z,6.40
2018-09-19T10:04:49.567Z,8.50
2018-09-19T10:07:17.761Z,11.20
2018-09-19T10:09:45.991Z,6.08
2018-09-19T10:12:14.254Z,9.80
2018-09-19T10:14:42.451Z,8.05
2018-09-19T10:17:10.677Z,7.72
2018-09-19T10:19:38.900Z,11.55
2018-09-19T10:22:07.105Z,8.98
2018-09-19T10:24:41.905Z,6.42
2018-09-19T10:27:10.153Z,6.35
2018-09-19T10:29:38.423Z,7.10
2018-09-19T10:32:06.597Z,7.65
2018-09-19T10:34:35.068Z,9.63
2018-09-19T10:37:03.258Z,6.37
2018-09-19T10:39:31.453Z,6.92
2018-09-19T10:42:00.230Z,6.47
2018-09-19T10:44:28.426Z,5.60
2018-09-19T10:46:56.669Z,6.20
2018-09-19T10:49:24.933Z,7.17
2018-09-19T10:51:53.064Z,5.00
2018-09-19T10:54:21.283Z,4.62
2018-09-19T10:56:49.521Z,6.75
2018-09-19T10:59:17.705Z,9.00
2018-09-19T11:01:45.903Z,3.70
2018-09-19T11:04:14.109Z,6.60
2018-09-19T11:06:42.337Z,9.70
2018-09-19T11:09:11.444Z,5.05
2018-09-19T11:11:39.645Z,6.33
2018-09-19T11:14:07.852Z,4.28
2018-09-19T11:16:36.095Z,8.20
2018-09-19T11:19:04.289Z,4.83
2018-09-19T11:21:32.501Z,6.62
2018-09-19T11:24:00.720Z,6.58
2018-09-19T11:26:29.252Z,7.55
2018-09-19T11:28:57.447Z,6.28
2018-09-19T11:31:25.623Z,8.83
2018-09-19T11:33:53.830Z,7.35
2018-09-19T11:36:22.066Z,5.67
2018-09-19T11:38:50.288Z,4.45
2018-09-19T11:41:18.501Z,3.98
2018-09-19T11:43:46.720Z,6.40
2018-09-19T11:46:14.930Z,7.12
2018-09-19T11:48:43.188Z,5.03
2018-09-19T11:51:11.472Z,5.45
2018-09-19T11:53:39.701Z,4.08
2018-09-19T11:56:07.965Z,6.47
2018-09-19T11:58:36.179Z,6.45
2018-09-19T12:01:04.453Z,3.98
2018-09-19T12:03:32.705Z,7.00
2018-09-19T12:06:00.905Z,10.00
2018-09-19T12:08:29.116Z,9.93
2018-09-19T12:10:57.382Z,12.33
2018-09-19T12:13:25.571Z,6.87
2018-09-19T12:15:53.788Z,6.33
2018-09-19T12:18:22.001Z,7.97
2018-09-19T12:20:50.200Z,9.93
2018-09-19T12:23:18.420Z,7.28
2018-09-19T12:25:46.637Z,8.43
2018-09-19T12:28:14.839Z,6.70
2018-09-19T12:30:43.025Z,6.83
2018-09-19T12:33:11.304Z,7.17
2018-09-19T12:35:40.069Z,5.95
2018-09-19T12:38:08.382Z,5.62
2018-09-19T12:40:36.625Z,4.70
2018-09-19T12:43:05.342Z,8.58
2018-09-19T12:45:33.553Z,9.53
2018-09-19T12:48:01.857Z,6.30
2018-09-19T12:50:30.117Z,10.45
2018-09-19T12:52:58.357Z,9.15
2018-09-19T12:55:26.599Z,4.33
2018-09-19T12:57:54.852Z,6.87
2018-09-19T13:00:23.061Z,5.58
2018-09-19T13:02:51.265Z,4.42
2018-09-19T13:05:19.468Z,9.80
2018-09-19T13:07:47.698Z,5.55
2018-09-19T13:10:15.889Z,6.60
2018-09-19T13:12:45.003Z,5.62
2018-09-19T13:15:13.207Z,7.95
2018-09-19T13:17:41.422Z,5.03
2018-09-19T13:20:09.813Z,7.10
2018-09-19T13:22:38.122Z,7.67
2018-09-19T13:25:06.636Z,7.85
2018-09-19T13:27:35.165Z,5.15
2018-09-19T13:30:03.487Z,6.12
2018-09-19T13:32:31.721Z,5.58
2018-09-19T13:34:59.998Z,6.47
2018-09-19T13:37:28.263Z,6.62
2018-09-19T13:39:56.582Z,6.47
2018-09-19T13:42:24.842Z,7.53
2018-09-19T13:44:53.117Z,6.05
2018-09-19T13:47:21.384Z,5.70
2018-09-19T13:49:53.650Z,8.48
2018-09-19T13:52:21.909Z,7.35
2018-09-19T13:54:50.138Z,3.22
2018-09-19T13:57:18.425Z,5.45
2018-09-19T13:59:46.800Z,6.62
2018-09-19T14:02:15.742Z,5.85
2018-09-19T14:04:44.101Z,7.45
2018-09-19T14:07:12.403Z,8.30
2018-09-19T14:09:42.053Z,5.30
2018-09-19T14:12:10.466Z,10.40
2018-09-19T14:14:38.689Z,7.30
2018-09-19T14:17:07.361Z,6.53
2018-09-19T14:19:35.671Z,5.22
2018-09-19T14:22:03.966Z,10.93
2018-09-19T14:24:32.271Z,7.33
2018-09-19T14:27:00.569Z,7.20
2018-09-19T14:29:29.202Z,8.35
2018-09-19T14:31:57.447Z,5.60
2018-09-19T14:34:25.713Z,7.33
2018-09-19T14:36:53.968Z,6.58
2018-09-19T14:39:22.268Z,4.30
2018-09-19T14:41:50.750Z,5.22
2018-09-19T14:44:19.646Z,7.70
2018-09-19T14:46:48.814Z,5.92
2018-09-19T14:49:17.061Z,5.97
2018-09-19T14:51:45.353Z,6.28
2018-09-19T14:54:13.616Z,7.58
2018-09-19T14:56:41.825Z,4.35
2018-09-19T14:59:10.892Z,7.62
2018-09-19T15:01:39.116Z,5.83
2018-09-19T15:04:07.324Z,5.03
2018-09-19T15:06:35.599Z,5.10
2018-09-19T15:09:05.270Z,8.20
2018-09-19T15:11:33.494Z,10.15
2018-09-19T15:14:01.704Z,8.15
2018-09-19T15:16:29.919Z,4.70
2018-09-19T15:18:58.959Z,6.08
2018-09-19T15:21:27.196Z,9.18
2018-09-19T15:23:55.403Z,7.53
2018-09-19T15:26:24.102Z,8.98
2018-09-19T15:28:52.372Z,6.35
2018-09-19T15:31:20.676Z,4.65
2018-09-19T15:33:48.953Z,6.40
2018-09-19T15:36:17.233Z,7.55
2018-09-19T15:38:45.511Z,4.87
2018-09-19T15:41:13.737Z,10.28
2018-09-19T15:43:41.983Z,6.17
2018-09-19T15:46:10.245Z,7.65
2018-09-19T15:48:38.462Z,5.85
2018-09-19T15:51:07.820Z,7.83
2018-09-19T15:53:36.086Z,4.87
2018-09-19T15:56:04.405Z,6.42
2018-09-19T15:58:32.981Z,7.53
2018-09-19T16:01:01.200Z,5.17
2018-09-19T16:03:29.464Z,4.85
2018-09-19T16:05:57.766Z,6.35
2018-09-19T16:08:26.592Z,5.42
2018-09-19T16:10:55.114Z,3.40
2018-09-19T16:13:23.343Z,5.75
2018-09-19T16:15:51.541Z,9.00
2018-09-19T16:18:19.802Z,4.15
2018-09-19T16:20:48.071Z,6.85
2018-09-19T16:23:16.232Z,4.00
2018-09-19T16:25:44.445Z,5.58
2018-09-19T16:28:12.698Z,4.70
2018-09-19T16:30:40.918Z,4.70
2018-09-19T16:33:09.203Z,9.13
2018-09-19T16:35:37.438Z,7.90
2018-09-19T16:38:06.072Z,8.10
2018-09-19T16:40:34.344Z,4.57
2018-09-19T16:43:02.517Z,6.58
2018-09-19T16:45:30.808Z,6.07
2018-09-19T16:47:59.033Z,4.65
2018-09-19T16:50:27.318Z,6.55
2018-09-19T16:52:55.883Z,5.83
2018-09-19T16:55:24.713Z,8.40
2018-09-19T16:57:52.950Z,5.47
2018-09-19T17:00:21.219Z,6.50
2018-09-19T17:02:49.597Z,7.33
2018-09-19T17:05:17.864Z,8.03
2018-09-19T17:07:46.400Z,5.10
2018-09-19T17:10:15.470Z,7.27
2018-09-19T17:12:43.726Z,6.07
2018-09-19T17:15:12.154Z,9.57
2018-09-19T17:17:42.236Z,6.27
2018-09-19T17:20:10.701Z,7.13
2018-09-19T17:22:38.937Z,8.97
2018-09-19T17:25:07.162Z,6.83
2018-09-19T17:27:35.509Z,6.00
2018-09-19T17:30:04.061Z,9.93
2018-09-19T17:32:32.313Z,8.90
2018-09-19T17:35:00.602Z,12.47
2018-09-19T17:37:28.827Z,6.70
2018-09-19T17:39:57.078Z,12.00
2018-09-19T17:42:25.377Z,5.33
2018-09-19T17:44:53.602Z,8.97
2018-09-19T17:47:21.826Z,10.23
2018-09-19T17:49:50.192Z,6.53
2018-09-19T17:52:18.300Z,20.53
2018-09-19T17:54:46.501Z,6.37
2018-09-19T17:57:14.732Z,5.67
2018-09-19T17:59:43.273Z,7.77
2018-09-19T18:02:11.483Z,5.10
2018-09-19T18:04:39.789Z,7.00
2018-09-19T18:07:08.188Z,7.37
2018-09-19T18:09:36.172Z,9.40
2018-09-19T18:12:04.398Z,10.83
2018-09-19T18:14:32.614Z,7.03
2018-09-19T18:17:00.834Z,8.97
2018-09-19T18:19:29.070Z,4.17
2018-09-19T18:21:57.700Z,4.60
2018-09-19T18:24:26.160Z,5.37
2018-09-19T18:26:54.651Z,6.83
2018-09-19T18:29:22.876Z,8.17
2018-09-19T18:31:51.097Z,4.37
2018-09-19T18:34:19.312Z,6.50
2018-09-19T18:36:47.572Z,11.53
2018-09-19T18:39:15.793Z,5.70
2018-09-19T18:41:44.484Z,5.07
2018-09-19T18:44:12.653Z,5.27
2018-09-19T18:46:41.259Z,6.13
2018-09-19T18:49:09.556Z,8.10
2018-09-19T18:51:37.761Z,11.60
2018-09-19T18:54:05.985Z,5.17
2018-09-19T18:56:34.349Z,7.13
2018-09-19T18:59:03.894Z,11.63
2018-09-19T19:01:32.148Z,9.20
2018-09-19T19:04:00.341Z,6.47
2018-09-19T19:06:28.869Z,8.63
2018-09-19T19:08:57.051Z,7.87
2018-09-19T19:11:25.292Z,8.40
2018-09-19T19:13:53.561Z,10.40
2018-09-19T19:16:21.848Z,8.07
2018-09-19T19:18:50.140Z,8.87
2018-09-19T19:21:18.356Z,9.90
2018-09-19T19:23:46.613Z,9.53
2018-09-19T19:26:14.862Z,12.33
2018-09-19T19:28:43.239Z,13.73
2018-09-19T19:31:11.454Z,13.87
2018-09-19T19:33:39.673Z,12.27
2018-09-19T19:36:08.183Z,12.97
2018-09-19T19:38:36.397Z,10.83
2018-09-19T19:41:04.644Z,10.13
2018-09-19T19:43:32.912Z,8.87
2018-09-19T19:46:01.144Z,12.23
2018-09-19T19:48:29.392Z,7.37
2018-09-19T19:50:57.668Z,10.43
2018-09-19T19:53:25.948Z,10.93
2018-09-19T19:55:54.207Z,12.37
2018-09-19T19:58:22.425Z,11.97
2018-09-19T20:00:50.614Z,11.53
2018-09-19T20:03:18.841Z,10.80
2018-09-19T20:05:47.160Z,14.20
2018-09-19T20:08:15.357Z,10.47
2018-09-19T20:10:43.693Z,15.73
2018-09-19T20:13:11.899Z,13.70
2018-09-19T20:15:40.094Z,12.40
2018-09-19T20:18:08.329Z,11.67
2018-09-19T20:20:36.531Z,13.77
2018-09-19T20:23:04.759Z,10.07
2018-09-19T20:25:32.991Z,10.40
2018-09-19T20:28:01.198Z,11.53
2018-09-19T20:30:29.143Z,12.00
2018-09-19T20:32:57.357Z,10.70
2018-09-19T20:35:25.562Z,11.47
2018-09-19T20:37:53.752Z,15.53
2018-09-19T20:40:21.920Z,15.07
2018-09-19T20:42:50.171Z,14.60
2018-09-19T20:45:18.407Z,15.13
2018-09-19T20:47:46.665Z,14.57
2018-09-19T20:50:14.877Z,13.30
2018-09-19T20:52:43.097Z,15.33
2018-09-19T20:55:11.287Z,11.97
2018-09-19T20:57:39.528Z,14.77
2018-09-19T21:00:07.797Z,9.37
2018-09-19T21:02:36.007Z,12.13
2018-09-19T21:05:04.289Z,9.47
2018-09-19T21:07:32.467Z,10.90
2018-09-19T21:10:00.657Z,14.07
2018-09-19T21:12:28.879Z,15.97
2018-09-19T21:14:57.049Z,10.83
2018-09-19T21:17:25.009Z,14.70
2018-09-19T21:19:53.232Z,12.27
2018-09-19T21:22:21.619Z,12.80
2018-09-19T21:24:49.651Z,13.13
2018-09-19T21:27:17.855Z,14.33
2018-09-19T21:29:46.051Z,19.47
2018-09-19T21:32:14.313Z,14.40
2018-09-19T21:34:42.643Z,14.03
2018-09-19T21:37:10.851Z,16.30
2018-09-19T21:39:39.054Z,13.20
2018-09-19T21:42:07.292Z,14.47
2018-09-19T21:44:35.508Z,12.83
2018-09-19T21:47:03.725Z,9.17
2018-09-19T21:49:31.939Z,12.80
2018-09-19T21:52:00.161Z,14.83
2018-09-19T21:54:28.389Z,10.60
2018-09-19T21:56:56.904Z,10.90
2018-09-19T21:59:25.148Z,12.20
2018-09-19T22:01:59.565Z,13.27
2018-09-19T22:04:28.104Z,11.13
2018-09-19T22:06:56.347Z,14.13
2018-09-19T22:09:24.574Z,13.40
2018-09-19T22:11:52.773Z,11.50
2018-09-19T22:14:20.972Z,11.80
2018-09-19T22:16:49.233Z,15.00
2018-09-19T22:19:17.512Z,15.77
2018-09-19T22:21:45.726Z,16.30
2018-09-19T22:24:13.916Z,13.70
2018-09-19T22:26:42.177Z,10.90
2018-09-19T22:29:10.415Z,17.43
2018-09-19T22:31:38.649Z,12.70
2018-09-19T22:34:06.857Z,12.60
2018-09-19T22:36:35.073Z,13.93
2018-09-19T22:39:03.758Z,12.27
2018-09-19T22:41:31.960Z,13.00
2018-09-19T22:44:00.217Z,14.17
2018-09-19T22:46:28.426Z,16.70
2018-09-19T22:48:56.636Z,11.33
2018-09-19T22:51:24.817Z,11.87
2018-09-19T22:53:53.061Z,12.77
2018-09-19T22:56:21.296Z,12.37
2018-09-19T22:58:49.603Z,14.13
2018-09-19T23:01:17.851Z,12.80
2018-09-19T23:03:46.059Z,12.13
2018-09-19T23:06:14.280Z,13.97
2018-09-19T23:08:42.473Z,16.80
2018-09-19T23:11:10.683Z,16.43
2018-09-19T23:13:38.922Z,11.77
2018-09-19T23:16:07.114Z,12.37
2018-09-19T23:18:35.290Z,15.30
2018-09-19T23:21:03.476Z,12.07
2018-09-19T23:23:31.701Z,11.53
2018-09-19T23:25:59.916Z,11.87
2018-09-19T23:28:28.154Z,12.97
2018-09-19T23:30:56.389Z,16.40
2018-09-19T23:33:24.591Z,13.63
2018-09-19T23:35:52.837Z,15.77
2018-09-19T23:38:21.074Z,17.73
2018-09-19T23:40:49.269Z,10.50
2018-09-19T23:43:17.502Z,14.23
2018-09-19T23:45:45.730Z,17.77
2018-09-19T23:48:13.953Z,14.77
2018-09-19T23:50:42.346Z,12.63
2018-09-19T23:53:10.561Z,16.07
2018-09-19T23:55:38.763Z,13.80
2018-09-19T23:58:07.000Z,14.30
